sensor_id;sensor_type;location;lat;lon;timestamp;pressure;altitude;pressure_sealevel;temperature;humidity
11680;BME280;5896;42.686;23.142;2024-03-29T00:01:20;92915.50;;;8.87;58.57
11680;BME280;5896;42.686;23.142;2024-03-29T00:03:45;92920.66;;;8.87;57.94
11680;BME280;5896;42.686;23.142;2024-03-29T00:06:11;92920.06;;;9.10;56.97
11680;BME280;5896;42.686;23.142;2024-03-29T00:08:37;92911.69;;;9.39;56.04
11680;BME280;5896;42.686;23.142;2024-03-29T00:11:02;92911.88;;;9.63;55.34
11680;BME280;5896;42.686;23.142;2024-03-29T00:13:28;92913.81;;;9.86;54.29
11680;BME280;5896;42.686;23.142;2024-03-29T00:15:53;92905.13;;;10.17;52.62
11680;BME280;5896;42.686;23.142;2024-03-29T00:21:41;92904.41;;;10.58;50.56
11680;BME280;5896;42.686;23.142;2024-03-29T00:24:06;92912.25;;;11.17;48.85
11680;BME280;5896;42.686;23.142;2024-03-29T00:26:32;92911.09;;;10.78;50.91
11680;BME280;5896;42.686;23.142;2024-03-29T00:28:57;92924.31;;;10.03;54.82
11680;BME280;5896;42.686;23.142;2024-03-29T00:31:22;92927.88;;;9.65;55.95
11680;BME280;5896;42.686;23.142;2024-03-29T00:33:48;92937.41;;;8.96;59.65
11680;BME280;5896;42.686;23.142;2024-03-29T00:36:13;92933.47;;;9.18;56.83
11680;BME280;5896;42.686;23.142;2024-03-29T00:38:39;92928.78;;;9.09;55.61
11680;BME280;5896;42.686;23.142;2024-03-29T00:41:04;92911.63;;;8.71;57.68
11680;BME280;5896;42.686;23.142;2024-03-29T00:43:30;92911.56;;;9.09;55.73
11680;BME280;5896;42.686;23.142;2024-03-29T00:45:56;92916.09;;;9.75;53.48
11680;BME280;5896;42.686;23.142;2024-03-29T00:48:21;92918.13;;;10.22;51.91
11680;BME280;5896;42.686;23.142;2024-03-29T00:50:46;92921.84;;;10.75;49.94
11680;BME280;5896;42.686;23.142;2024-03-29T00:53:12;92925.19;;;11.29;48.92
11680;BME280;5896;42.686;23.142;2024-03-29T00:55:37;92927.56;;;11.18;48.17
11680;BME280;5896;42.686;23.142;2024-03-29T00:58:03;92919.78;;;11.07;48.72
11680;BME280;5896;42.686;23.142;2024-03-29T01:00:28;92936.53;;;11.28;47.58
11680;BME280;5896;42.686;23.142;2024-03-29T01:02:54;92937.66;;;11.43;47.66
11680;BME280;5896;42.686;23.142;2024-03-29T01:05:19;92943.06;;;11.30;47.90
11680;BME280;5896;42.686;23.142;2024-03-29T01:07:44;92947.13;;;11.38;47.89
11680;BME280;5896;42.686;23.142;2024-03-29T01:10:10;92949.03;;;11.42;47.45
11680;BME280;5896;42.686;23.142;2024-03-29T01:12:36;92947.22;;;11.31;48.66
11680;BME280;5896;42.686;23.142;2024-03-29T01:15:02;92945.41;;;11.32;48.27
11680;BME280;5896;42.686;23.142;2024-03-29T01:17:28;92943.75;;;11.26;48.83
11680;BME280;5896;42.686;23.142;2024-03-29T01:19:54;92937.53;;;11.03;49.38
11680;BME280;5896;42.686;23.142;2024-03-29T01:22:19;92934.00;;;10.86;50.01
11680;BME280;5896;42.686;23.142;2024-03-29T01:24:45;92937.47;;;10.80;50.28
11680;BME280;5896;42.686;23.142;2024-03-29T01:27:10;92931.88;;;10.94;49.79
11680;BME280;5896;42.686;23.142;2024-03-29T01:29:35;92931.59;;;11.14;48.75
11680;BME280;5896;42.686;23.142;2024-03-29T01:32:01;92920.94;;;11.46;47.50
11680;BME280;5896;42.686;23.142;2024-03-29T01:34:27;92923.63;;;11.51;47.21
11680;BME280;5896;42.686;23.142;2024-03-29T01:36:53;92935.66;;;11.34;48.18
11680;BME280;5896;42.686;23.142;2024-03-29T01:39:18;92939.91;;;11.28;48.80
11680;BME280;5896;42.686;23.142;2024-03-29T01:41:51;92930.84;;;11.49;48.23
11680;BME280;5896;42.686;23.142;2024-03-29T01:44:17;92934.09;;;11.44;48.50
11680;BME280;5896;42.686;23.142;2024-03-29T01:46:43;92935.09;;;11.43;48.24
11680;BME280;5896;42.686;23.142;2024-03-29T01:49:10;92940.59;;;11.47;48.29
11680;BME280;5896;42.686;23.142;2024-03-29T01:51:37;92932.06;;;11.47;48.67
11680;BME280;5896;42.686;23.142;2024-03-29T01:54:08;92940.94;;;11.39;48.55
11680;BME280;5896;42.686;23.142;2024-03-29T01:56:35;92942.97;;;11.25;49.07
11680;BME280;5896;42.686;23.142;2024-03-29T01:59:03;92948.00;;;11.20;48.36
11680;BME280;5896;42.686;23.142;2024-03-29T02:01:30;92955.72;;;11.08;48.99
11680;BME280;5896;42.686;23.142;2024-03-29T02:03:55;92959.31;;;11.07;49.54
11680;BME280;5896;42.686;23.142;2024-03-29T02:06:22;92966.94;;;11.02;49.50
11680;BME280;5896;42.686;23.142;2024-03-29T02:08:52;92971.56;;;11.12;48.72
11680;BME280;5896;42.686;23.142;2024-03-29T02:11:18;92982.47;;;11.14;48.98
11680;BME280;5896;42.686;23.142;2024-03-29T02:13:44;92983.91;;;11.10;48.80
11680;BME280;5896;42.686;23.142;2024-03-29T02:16:10;92984.38;;;11.18;48.02
11680;BME280;5896;42.686;23.142;2024-03-29T02:18:36;93005.72;;;11.14;49.25
11680;BME280;5896;42.686;23.142;2024-03-29T02:21:01;93015.78;;;11.04;49.14
11680;BME280;5896;42.686;23.142;2024-03-29T02:23:27;93026.34;;;10.72;50.45
11680;BME280;5896;42.686;23.142;2024-03-29T02:25:55;93032.63;;;10.03;54.38
11680;BME280;5896;42.686;23.142;2024-03-29T02:28:23;93038.88;;;9.88;54.09
11680;BME280;5896;42.686;23.142;2024-03-29T02:30:51;93058.09;;;9.11;56.23
11680;BME280;5896;42.686;23.142;2024-03-29T02:33:17;93048.91;;;9.28;55.58
11680;BME280;5896;42.686;23.142;2024-03-29T02:35:42;93061.56;;;8.91;57.69
11680;BME280;5896;42.686;23.142;2024-03-29T02:38:08;93067.72;;;8.90;57.16
11680;BME280;5896;42.686;23.142;2024-03-29T02:40:33;93073.56;;;8.66;58.72
11680;BME280;5896;42.686;23.142;2024-03-29T02:42:59;93070.22;;;8.52;59.61
11680;BME280;5896;42.686;23.142;2024-03-29T02:45:24;93078.78;;;8.33;61.85
11680;BME280;5896;42.686;23.142;2024-03-29T02:47:50;93077.81;;;8.34;61.23
11680;BME280;5896;42.686;23.142;2024-03-29T02:50:15;93078.03;;;8.19;62.36
11680;BME280;5896;42.686;23.142;2024-03-29T02:52:41;93090.63;;;6.94;67.60
11680;BME280;5896;42.686;23.142;2024-03-29T02:55:07;93097.19;;;7.23;66.51
11680;BME280;5896;42.686;23.142;2024-03-29T02:57:33;93094.69;;;7.63;65.32
11680;BME280;5896;42.686;23.142;2024-03-29T02:59:58;93082.03;;;7.68;63.91
11680;BME280;5896;42.686;23.142;2024-03-29T03:02:23;93087.19;;;7.62;64.89
11680;BME280;5896;42.686;23.142;2024-03-29T03:04:49;93093.47;;;7.32;65.96
11680;BME280;5896;42.686;23.142;2024-03-29T03:07:15;93098.03;;;7.44;64.93
11680;BME280;5896;42.686;23.142;2024-03-29T03:09:59;93107.44;;;7.23;65.71
11680;BME280;5896;42.686;23.142;2024-03-29T03:12:43;93119.50;;;7.16;67.19
11680;BME280;5896;42.686;23.142;2024-03-29T03:15:09;93113.56;;;7.09;65.88
11680;BME280;5896;42.686;23.142;2024-03-29T03:17:34;93115.91;;;7.04;66.38
11680;BME280;5896;42.686;23.142;2024-03-29T03:19:59;93125.53;;;6.82;68.65
11680;BME280;5896;42.686;23.142;2024-03-29T03:22:25;93139.13;;;6.89;68.57
11680;BME280;5896;42.686;23.142;2024-03-29T03:24:50;93145.22;;;6.81;68.16
11680;BME280;5896;42.686;23.142;2024-03-29T03:27:16;93133.53;;;6.66;68.46
11680;BME280;5896;42.686;23.142;2024-03-29T03:29:41;93141.47;;;6.77;68.05
11680;BME280;5896;42.686;23.142;2024-03-29T03:32:07;93137.75;;;6.87;67.70
11680;BME280;5896;42.686;23.142;2024-03-29T03:34:32;93132.88;;;6.98;66.66
11680;BME280;5896;42.686;23.142;2024-03-29T03:36:58;93136.44;;;7.04;67.18
11680;BME280;5896;42.686;23.142;2024-03-29T03:39:24;93151.03;;;7.03;67.24
11680;BME280;5896;42.686;23.142;2024-03-29T03:41:50;93156.50;;;6.87;67.84
11680;BME280;5896;42.686;23.142;2024-03-29T03:44:15;93155.72;;;6.87;68.23
11680;BME280;5896;42.686;23.142;2024-03-29T03:46:41;93156.09;;;6.83;68.38
11680;BME280;5896;42.686;23.142;2024-03-29T03:49:06;93163.41;;;6.87;68.01
11680;BME280;5896;42.686;23.142;2024-03-29T03:51:31;93158.06;;;6.81;67.96
11680;BME280;5896;42.686;23.142;2024-03-29T03:53:57;93157.25;;;6.74;68.61
11680;BME280;5896;42.686;23.142;2024-03-29T03:56:22;93171.50;;;6.83;68.73
11680;BME280;5896;42.686;23.142;2024-03-29T03:58:48;93175.06;;;6.82;68.67
11680;BME280;5896;42.686;23.142;2024-03-29T04:01:13;93167.31;;;6.76;69.08
11680;BME280;5896;42.686;23.142;2024-03-29T04:03:38;93184.44;;;6.69;69.07
11680;BME280;5896;42.686;23.142;2024-03-29T04:06:05;93187.75;;;6.56;69.23
11680;BME280;5896;42.686;23.142;2024-03-29T04:08:31;93180.31;;;6.40;70.23
11680;BME280;5896;42.686;23.142;2024-03-29T04:10:57;93193.47;;;6.30;70.47
11680;BME280;5896;42.686;23.142;2024-03-29T04:13:22;93188.78;;;6.33;69.68
11680;BME280;5896;42.686;23.142;2024-03-29T04:15:48;93180.88;;;6.63;68.78
11680;BME280;5896;42.686;23.142;2024-03-29T04:18:13;93190.84;;;6.86;67.75
11680;BME280;5896;42.686;23.142;2024-03-29T04:20:38;93188.50;;;6.91;67.81
11680;BME280;5896;42.686;23.142;2024-03-29T04:23:05;93208.50;;;6.68;70.07
11680;BME280;5896;42.686;23.142;2024-03-29T04:25:30;93207.69;;;6.61;70.71
11680;BME280;5896;42.686;23.142;2024-03-29T04:27:56;93222.66;;;6.57;69.70
11680;BME280;5896;42.686;23.142;2024-03-29T04:30:21;93219.88;;;6.52;70.32
11680;BME280;5896;42.686;23.142;2024-03-29T04:32:47;93223.81;;;6.54;69.74
11680;BME280;5896;42.686;23.142;2024-03-29T04:35:12;93225.25;;;6.64;69.72
11680;BME280;5896;42.686;23.142;2024-03-29T04:37:38;93228.13;;;6.82;69.00
11680;BME280;5896;42.686;23.142;2024-03-29T04:40:04;93233.31;;;6.95;68.47
11680;BME280;5896;42.686;23.142;2024-03-29T04:42:29;93238.06;;;7.40;66.23
11680;BME280;5896;42.686;23.142;2024-03-29T04:44:55;93231.81;;;7.75;63.04
11680;BME280;5896;42.686;23.142;2024-03-29T04:47:20;93234.63;;;7.94;63.18
11680;BME280;5896;42.686;23.142;2024-03-29T04:49:46;93245.13;;;8.12;62.35
11680;BME280;5896;42.686;23.142;2024-03-29T04:52:11;93246.34;;;8.23;62.56
11680;BME280;5896;42.686;23.142;2024-03-29T04:54:36;93247.53;;;8.27;62.11
11680;BME280;5896;42.686;23.142;2024-03-29T04:57:02;93246.16;;;8.51;60.26
11680;BME280;5896;42.686;23.142;2024-03-29T04:59:29;93249.72;;;8.57;60.45
11680;BME280;5896;42.686;23.142;2024-03-29T05:01:55;93250.50;;;8.70;60.45
11680;BME280;5896;42.686;23.142;2024-03-29T05:04:22;93240.19;;;8.70;60.91
11680;BME280;5896;42.686;23.142;2024-03-29T05:06:54;93248.09;;;8.89;58.88
11680;BME280;5896;42.686;23.142;2024-03-29T05:09:19;93246.91;;;8.98;59.62
11680;BME280;5896;42.686;23.142;2024-03-29T05:11:45;93256.59;;;9.09;59.81
11680;BME280;5896;42.686;23.142;2024-03-29T05:14:13;93260.50;;;9.18;58.86
11680;BME280;5896;42.686;23.142;2024-03-29T05:16:40;93267.81;;;9.28;59.26
11680;BME280;5896;42.686;23.142;2024-03-29T05:19:06;93271.53;;;9.39;58.63
11680;BME280;5896;42.686;23.142;2024-03-29T05:21:31;93284.56;;;9.50;57.93
11680;BME280;5896;42.686;23.142;2024-03-29T05:23:56;93287.94;;;9.51;58.33
11680;BME280;5896;42.686;23.142;2024-03-29T05:26:22;93277.34;;;9.72;58.65
11680;BME280;5896;42.686;23.142;2024-03-29T05:28:47;93276.50;;;9.85;57.72
11680;BME280;5896;42.686;23.142;2024-03-29T05:31:14;93294.50;;;9.92;58.09
11680;BME280;5896;42.686;23.142;2024-03-29T05:33:43;93292.66;;;10.06;57.17
11680;BME280;5896;42.686;23.142;2024-03-29T05:36:10;93291.34;;;10.28;57.38
11680;BME280;5896;42.686;23.142;2024-03-29T05:38:38;93297.91;;;10.31;58.05
11680;BME280;5896;42.686;23.142;2024-03-29T05:41:03;93296.91;;;10.32;57.58
11680;BME280;5896;42.686;23.142;2024-03-29T05:43:29;93286.53;;;10.63;55.35
11680;BME280;5896;42.686;23.142;2024-03-29T05:45:54;93295.25;;;10.69;57.82
11680;BME280;5896;42.686;23.142;2024-03-29T05:48:20;93309.97;;;10.62;59.44
11680;BME280;5896;42.686;23.142;2024-03-29T05:50:45;93302.03;;;10.88;57.72
11680;BME280;5896;42.686;23.142;2024-03-29T05:53:11;93295.66;;;11.09;54.82
11680;BME280;5896;42.686;23.142;2024-03-29T05:55:36;93302.88;;;11.26;53.20
11680;BME280;5896;42.686;23.142;2024-03-29T05:58:02;93312.50;;;11.55;50.75
11680;BME280;5896;42.686;23.142;2024-03-29T06:00:28;93310.34;;;11.71;51.42
11680;BME280;5896;42.686;23.142;2024-03-29T06:02:54;93312.66;;;11.97;48.97
11680;BME280;5896;42.686;23.142;2024-03-29T06:05:19;93322.13;;;12.33;49.18
11680;BME280;5896;42.686;23.142;2024-03-29T06:07:45;93318.44;;;12.41;49.22
11680;BME280;5896;42.686;23.142;2024-03-29T06:10:10;93312.13;;;12.49;49.45
11680;BME280;5896;42.686;23.142;2024-03-29T06:12:36;93318.63;;;12.70;46.65
11680;BME280;5896;42.686;23.142;2024-03-29T06:15:07;93307.69;;;12.79;47.75
11680;BME280;5896;42.686;23.142;2024-03-29T06:17:51;93309.16;;;12.75;47.80
11680;BME280;5896;42.686;23.142;2024-03-29T06:20:17;93324.25;;;12.78;48.21
11680;BME280;5896;42.686;23.142;2024-03-29T06:22:42;93312.78;;;12.98;47.83
11680;BME280;5896;42.686;23.142;2024-03-29T06:25:08;93314.34;;;12.99;47.12
11680;BME280;5896;42.686;23.142;2024-03-29T06:27:35;93316.84;;;13.05;47.13
11680;BME280;5896;42.686;23.142;2024-03-29T06:30:02;93314.94;;;13.12;46.80
11680;BME280;5896;42.686;23.142;2024-03-29T06:32:27;93319.56;;;13.22;45.26
11680;BME280;5896;42.686;23.142;2024-03-29T06:34:52;93316.78;;;13.24;46.28
11680;BME280;5896;42.686;23.142;2024-03-29T06:37:18;93316.84;;;13.41;45.64
11680;BME280;5896;42.686;23.142;2024-03-29T06:39:46;93320.13;;;13.48;46.92
11680;BME280;5896;42.686;23.142;2024-03-29T06:42:12;93318.66;;;13.52;45.34
11680;BME280;5896;42.686;23.142;2024-03-29T06:44:37;93308.63;;;13.44;44.76
11680;BME280;5896;42.686;23.142;2024-03-29T06:47:03;93312.34;;;13.48;44.72
11680;BME280;5896;42.686;23.142;2024-03-29T06:49:29;93307.94;;;13.48;44.97
11680;BME280;5896;42.686;23.142;2024-03-29T06:51:54;93312.31;;;13.71;44.85
11680;BME280;5896;42.686;23.142;2024-03-29T06:54:21;93321.81;;;13.66;44.13
11680;BME280;5896;42.686;23.142;2024-03-29T06:56:51;93316.53;;;13.60;44.25
11680;BME280;5896;42.686;23.142;2024-03-29T06:59:18;93321.66;;;13.84;43.78
11680;BME280;5896;42.686;23.142;2024-03-29T07:01:43;93319.59;;;13.86;43.34
11680;BME280;5896;42.686;23.142;2024-03-29T07:04:09;93323.97;;;13.97;44.13
11680;BME280;5896;42.686;23.142;2024-03-29T07:06:35;93335.66;;;14.11;42.94
11680;BME280;5896;42.686;23.142;2024-03-29T07:09:02;93331.91;;;14.19;41.93
11680;BME280;5896;42.686;23.142;2024-03-29T07:11:28;93334.66;;;14.41;42.43
11680;BME280;5896;42.686;23.142;2024-03-29T07:13:54;93333.84;;;14.52;41.34
11680;BME280;5896;42.686;23.142;2024-03-29T07:16:19;93330.13;;;14.48;42.80
11680;BME280;5896;42.686;23.142;2024-03-29T07:18:45;93335.31;;;14.48;44.19
11680;BME280;5896;42.686;23.142;2024-03-29T07:21:10;93327.94;;;14.57;43.92
11680;BME280;5896;42.686;23.142;2024-03-29T07:23:36;93327.75;;;14.75;44.72
11680;BME280;5896;42.686;23.142;2024-03-29T07:26:02;93333.75;;;14.93;43.84
11680;BME280;5896;42.686;23.142;2024-03-29T07:28:29;93333.09;;;15.02;44.58
11680;BME280;5896;42.686;23.142;2024-03-29T07:30:54;93335.78;;;14.91;42.95
11680;BME280;5896;42.686;23.142;2024-03-29T07:33:21;93338.44;;;14.96;43.77
11680;BME280;5896;42.686;23.142;2024-03-29T07:35:51;93330.25;;;15.21;43.50
11680;BME280;5896;42.686;23.142;2024-03-29T07:38:16;93332.53;;;15.34;43.78
11680;BME280;5896;42.686;23.142;2024-03-29T07:40:43;93330.63;;;15.46;42.12
11680;BME280;5896;42.686;23.142;2024-03-29T07:43:09;93322.75;;;15.41;40.75
11680;BME280;5896;42.686;23.142;2024-03-29T07:45:34;93330.69;;;15.51;41.77
11680;BME280;5896;42.686;23.142;2024-03-29T07:47:59;93325.75;;;15.33;40.57
11680;BME280;5896;42.686;23.142;2024-03-29T07:50:25;93333.16;;;15.41;41.84
11680;BME280;5896;42.686;23.142;2024-03-29T07:52:51;93331.06;;;15.60;40.75
11680;BME280;5896;42.686;23.142;2024-03-29T07:55:16;93337.31;;;15.76;41.21
11680;BME280;5896;42.686;23.142;2024-03-29T07:57:42;93329.97;;;15.73;41.94
11680;BME280;5896;42.686;23.142;2024-03-29T08:00:07;93332.38;;;16.01;46.11
11680;BME280;5896;42.686;23.142;2024-03-29T08:02:35;93329.13;;;16.11;42.08
11680;BME280;5896;42.686;23.142;2024-03-29T08:05:01;93326.22;;;16.08;39.77
11680;BME280;5896;42.686;23.142;2024-03-29T08:07:26;93325.31;;;16.19;43.03
11680;BME280;5896;42.686;23.142;2024-03-29T08:09:51;93326.13;;;16.24;39.04
11680;BME280;5896;42.686;23.142;2024-03-29T08:12:17;93329.81;;;16.28;39.19
11680;BME280;5896;42.686;23.142;2024-03-29T08:14:43;93326.28;;;16.40;38.31
11680;BME280;5896;42.686;23.142;2024-03-29T08:17:08;93322.03;;;16.56;38.40
11680;BME280;5896;42.686;23.142;2024-03-29T08:19:40;93318.91;;;16.86;41.26
11680;BME280;5896;42.686;23.142;2024-03-29T08:22:06;93311.50;;;17.05;39.11
11680;BME280;5896;42.686;23.142;2024-03-29T08:24:32;93299.63;;;17.19;39.14
11680;BME280;5896;42.686;23.142;2024-03-29T08:26:58;93309.66;;;17.37;42.36
11680;BME280;5896;42.686;23.142;2024-03-29T08:29:25;93308.94;;;17.47;40.06
11680;BME280;5896;42.686;23.142;2024-03-29T08:31:50;93300.28;;;17.41;40.73
11680;BME280;5896;42.686;23.142;2024-03-29T08:34:15;93304.53;;;17.52;40.25
11680;BME280;5896;42.686;23.142;2024-03-29T08:36:41;93300.72;;;17.70;40.47
11680;BME280;5896;42.686;23.142;2024-03-29T08:39:06;93292.47;;;17.94;38.60
11680;BME280;5896;42.686;23.142;2024-03-29T08:41:32;93298.31;;;18.11;38.51
11680;BME280;5896;42.686;23.142;2024-03-29T08:43:57;93298.53;;;17.99;38.59
11680;BME280;5896;42.686;23.142;2024-03-29T08:46:22;93298.69;;;17.83;41.04
11680;BME280;5896;42.686;23.142;2024-03-29T08:48:48;93300.84;;;17.48;37.53
11680;BME280;5896;42.686;23.142;2024-03-29T08:51:13;93295.13;;;17.51;37.67
11680;BME280;5896;42.686;23.142;2024-03-29T08:53:40;93298.03;;;17.60;39.50
11680;BME280;5896;42.686;23.142;2024-03-29T08:56:06;93296.38;;;17.86;39.21
11680;BME280;5896;42.686;23.142;2024-03-29T08:58:31;93285.50;;;18.15;41.06
11680;BME280;5896;42.686;23.142;2024-03-29T09:00:56;93290.13;;;17.92;39.33
11680;BME280;5896;42.686;23.142;2024-03-29T09:03:23;93285.88;;;18.64;39.28
11680;BME280;5896;42.686;23.142;2024-03-29T09:05:49;93279.84;;;18.69;37.17
11680;BME280;5896;42.686;23.142;2024-03-29T09:08:15;93288.78;;;19.04;36.96
11680;BME280;5896;42.686;23.142;2024-03-29T09:10:41;93280.06;;;18.32;36.21
11680;BME280;5896;42.686;23.142;2024-03-29T09:13:06;93271.00;;;18.95;35.88
11680;BME280;5896;42.686;23.142;2024-03-29T09:15:33;93269.34;;;18.23;34.93
11680;BME280;5896;42.686;23.142;2024-03-29T09:17:58;93259.47;;;18.91;35.75
11680;BME280;5896;42.686;23.142;2024-03-29T09:20:28;93260.00;;;19.14;38.84
11680;BME280;5896;42.686;23.142;2024-03-29T09:22:53;93256.25;;;19.56;33.80
11680;BME280;5896;42.686;23.142;2024-03-29T09:25:18;93258.75;;;19.97;34.25
11680;BME280;5896;42.686;23.142;2024-03-29T09:27:47;93241.91;;;20.57;34.39
11680;BME280;5896;42.686;23.142;2024-03-29T09:30:14;93240.44;;;19.86;36.93
11680;BME280;5896;42.686;23.142;2024-03-29T09:32:40;93238.25;;;20.48;32.50
11680;BME280;5896;42.686;23.142;2024-03-29T09:35:06;93237.78;;;20.80;31.38
11680;BME280;5896;42.686;23.142;2024-03-29T09:37:32;93232.56;;;21.38;31.73
11680;BME280;5896;42.686;23.142;2024-03-29T09:40:02;93226.78;;;20.78;31.05
11680;BME280;5896;42.686;23.142;2024-03-29T09:42:29;93217.94;;;21.27;31.53
11680;BME280;5896;42.686;23.142;2024-03-29T09:45:01;93220.13;;;22.11;30.24
11680;BME280;5896;42.686;23.142;2024-03-29T09:47:28;93213.16;;;21.82;28.35
11680;BME280;5896;42.686;23.142;2024-03-29T09:49:55;93211.72;;;21.71;28.28
11680;BME280;5896;42.686;23.142;2024-03-29T09:52:22;93218.13;;;22.03;31.15
11680;BME280;5896;42.686;23.142;2024-03-29T09:54:47;93216.63;;;22.40;29.07
11680;BME280;5896;42.686;23.142;2024-03-29T09:57:13;93209.34;;;22.69;28.29
11680;BME280;5896;42.686;23.142;2024-03-29T09:59:38;93208.13;;;21.62;31.58
11680;BME280;5896;42.686;23.142;2024-03-29T10:02:11;93197.22;;;21.74;28.91
11680;BME280;5896;42.686;23.142;2024-03-29T10:04:40;93191.66;;;22.37;31.37
11680;BME280;5896;42.686;23.142;2024-03-29T10:07:06;93192.34;;;22.94;28.12
11680;BME280;5896;42.686;23.142;2024-03-29T10:09:31;93194.22;;;22.42;26.36
11680;BME280;5896;42.686;23.142;2024-03-29T10:11:58;93199.38;;;21.91;29.68
11680;BME280;5896;42.686;23.142;2024-03-29T10:14:23;93193.16;;;22.43;26.56
11680;BME280;5896;42.686;23.142;2024-03-29T10:16:51;93197.25;;;22.49;27.96
11680;BME280;5896;42.686;23.142;2024-03-29T10:19:17;93186.47;;;21.70;29.72
11680;BME280;5896;42.686;23.142;2024-03-29T10:21:42;93190.16;;;22.82;26.88
11680;BME280;5896;42.686;23.142;2024-03-29T10:24:15;93191.66;;;22.89;27.23
11680;BME280;5896;42.686;23.142;2024-03-29T10:26:42;93205.03;;;22.41;28.78
11680;BME280;5896;42.686;23.142;2024-03-29T10:29:08;93190.09;;;22.36;27.43
11680;BME280;5896;42.686;23.142;2024-03-29T10:31:35;93189.38;;;23.15;27.22
11680;BME280;5896;42.686;23.142;2024-03-29T10:34:04;93186.69;;;22.36;28.55
11680;BME280;5896;42.686;23.142;2024-03-29T10:36:34;93191.38;;;22.20;28.79
11680;BME280;5896;42.686;23.142;2024-03-29T10:39:02;93195.31;;;22.88;27.22
11680;BME280;5896;42.686;23.142;2024-03-29T10:41:27;93187.03;;;23.13;26.64
11680;BME280;5896;42.686;23.142;2024-03-29T10:43:54;93183.63;;;23.13;26.44
11680;BME280;5896;42.686;23.142;2024-03-29T10:46:21;93189.06;;;22.70;25.83
11680;BME280;5896;42.686;23.142;2024-03-29T10:48:49;93188.22;;;23.35;26.37
11680;BME280;5896;42.686;23.142;2024-03-29T10:51:14;93187.09;;;22.94;25.67
11680;BME280;5896;42.686;23.142;2024-03-29T10:53:41;93188.09;;;22.09;27.48
11680;BME280;5896;42.686;23.142;2024-03-29T10:56:07;93180.97;;;22.80;25.13
11680;BME280;5896;42.686;23.142;2024-03-29T10:58:39;93174.31;;;22.69;24.71
11680;BME280;5896;42.686;23.142;2024-03-29T11:01:06;93170.75;;;22.78;25.43
11680;BME280;5896;42.686;23.142;2024-03-29T11:03:37;93164.75;;;22.92;24.61
11680;BME280;5896;42.686;23.142;2024-03-29T11:06:05;93169.75;;;22.93;25.52
11680;BME280;5896;42.686;23.142;2024-03-29T11:08:33;93162.66;;;23.21;24.54
11680;BME280;5896;42.686;23.142;2024-03-29T11:11:00;93166.28;;;22.79;24.03
11680;BME280;5896;42.686;23.142;2024-03-29T11:13:55;93172.31;;;22.79;23.22
11680;BME280;5896;42.686;23.142;2024-03-29T11:16:22;93163.31;;;22.34;25.81
11680;BME280;5896;42.686;23.142;2024-03-29T11:18:49;93165.34;;;21.99;24.94
11680;BME280;5896;42.686;23.142;2024-03-29T11:21:15;93160.22;;;23.11;23.42
11680;BME280;5896;42.686;23.142;2024-03-29T11:23:49;93174.53;;;22.72;23.70
11680;BME280;5896;42.686;23.142;2024-03-29T11:26:15;93165.38;;;22.70;23.59
11680;BME280;5896;42.686;23.142;2024-03-29T11:28:48;93170.19;;;22.81;22.79
11680;BME280;5896;42.686;23.142;2024-03-29T11:31:15;93166.00;;;22.48;24.42
11680;BME280;5896;42.686;23.142;2024-03-29T11:36:13;93159.91;;;22.99;24.37
11680;BME280;5896;42.686;23.142;2024-03-29T11:38:39;93163.06;;;23.42;24.33
11680;BME280;5896;42.686;23.142;2024-03-29T11:41:07;93164.03;;;22.40;25.38
11680;BME280;5896;42.686;23.142;2024-03-29T11:43:34;93156.00;;;23.10;25.08
11680;BME280;5896;42.686;23.142;2024-03-29T11:46:01;93161.59;;;22.05;25.25
11680;BME280;5896;42.686;23.142;2024-03-29T11:48:28;93151.19;;;22.85;24.73
11680;BME280;5896;42.686;23.142;2024-03-29T11:50:53;93170.47;;;23.13;24.00
11680;BME280;5896;42.686;23.142;2024-03-29T11:53:20;93154.84;;;22.37;24.33
11680;BME280;5896;42.686;23.142;2024-03-29T11:55:46;93158.09;;;21.72;27.45
11680;BME280;5896;42.686;23.142;2024-03-29T11:58:13;93154.50;;;22.57;25.25
11680;BME280;5896;42.686;23.142;2024-03-29T12:00:39;93161.38;;;22.72;24.79
11680;BME280;5896;42.686;23.142;2024-03-29T12:03:05;93164.59;;;23.16;26.49
11680;BME280;5896;42.686;23.142;2024-03-29T12:05:32;93143.31;;;23.95;24.48
11680;BME280;5896;42.686;23.142;2024-03-29T12:07:58;93147.06;;;23.66;23.01
11680;BME280;5896;42.686;23.142;2024-03-29T12:10:30;93149.03;;;22.87;24.06
11680;BME280;5896;42.686;23.142;2024-03-29T12:12:57;93151.25;;;23.40;23.76
11680;BME280;5896;42.686;23.142;2024-03-29T12:15:27;93152.41;;;23.20;23.47
11680;BME280;5896;42.686;23.142;2024-03-29T12:17:57;93145.19;;;23.25;22.17
11680;BME280;5896;42.686;23.142;2024-03-29T12:20:23;93143.50;;;23.85;21.08
11680;BME280;5896;42.686;23.142;2024-03-29T12:22:49;93149.50;;;24.13;21.07
11680;BME280;5896;42.686;23.142;2024-03-29T12:25:14;93149.78;;;23.61;21.68
11680;BME280;5896;42.686;23.142;2024-03-29T12:27:46;93149.59;;;23.30;21.90
11680;BME280;5896;42.686;23.142;2024-03-29T12:30:12;93145.97;;;23.81;21.81
11680;BME280;5896;42.686;23.142;2024-03-29T12:32:39;93145.06;;;23.86;20.97
11680;BME280;5896;42.686;23.142;2024-03-29T12:35:08;93145.22;;;24.03;22.35
11680;BME280;5896;42.686;23.142;2024-03-29T12:37:34;93144.72;;;24.82;22.06
11680;BME280;5896;42.686;23.142;2024-03-29T12:40:00;93136.41;;;25.29;21.50
11680;BME280;5896;42.686;23.142;2024-03-29T12:42:27;93136.50;;;24.84;21.14
11680;BME280;5896;42.686;23.142;2024-03-29T12:44:54;93131.81;;;24.36;20.21
11680;BME280;5896;42.686;23.142;2024-03-29T12:47:20;93136.13;;;23.73;23.71
11680;BME280;5896;42.686;23.142;2024-03-29T12:49:47;93130.78;;;24.00;20.25
11680;BME280;5896;42.686;23.142;2024-03-29T12:52:13;93123.22;;;24.44;21.00
11680;BME280;5896;42.686;23.142;2024-03-29T12:54:39;93139.50;;;23.87;21.65
11680;BME280;5896;42.686;23.142;2024-03-29T12:57:04;93130.97;;;24.26;20.08
11680;BME280;5896;42.686;23.142;2024-03-29T12:59:29;93130.88;;;24.54;19.11
11680;BME280;5896;42.686;23.142;2024-03-29T13:01:55;93132.38;;;24.69;19.91
11680;BME280;5896;42.686;23.142;2024-03-29T13:04:21;93126.00;;;24.70;19.18